createdAt,value
2019-02-18T00:02:00.235Z,33.93
2019-02-18T00:04:28.360Z,33.65
2019-02-18T00:06:56.513Z,34.63
2019-02-18T00:09:24.578Z,33.67
2019-02-18T00:11:52.710Z,34.27
2019-02-18T00:14:20.895Z,34.48
2019-02-18T00:16:49.093Z,33.50
2019-02-18T00:19:17.230Z,33.83
2019-02-18T00:21:45.373Z,33.85
2019-02-18T00:24:13.521Z,33.80
2019-02-18T00:26:41.652Z,35.40
2019-02-18T00:29:09.796Z,35.03
2019-02-18T00:31:38.114Z,35.40
2019-02-18T00:34:06.264Z,35.88
2019-02-18T00:36:34.317Z,36.28
2019-02-18T00:39:04.522Z,36.30
2019-02-18T00:41:32.910Z,34.80
2019-02-18T00:44:01.044Z,34.58
2019-02-18T00:46:29.216Z,34.70
2019-02-18T00:48:57.432Z,36.13
2019-02-18T00:51:25.514Z,35.55
2019-02-18T00:53:53.642Z,35.88
2019-02-18T00:56:21.802Z,36.38
2019-02-18T00:58:49.969Z,35.73
2019-02-18T01:01:18.085Z,35.17
2019-02-18T01:03:49.242Z,35.03
2019-02-18T01:06:17.377Z,34.63
2019-02-18T01:08:45.522Z,35.52
2019-02-18T01:11:13.686Z,35.58
2019-02-18T01:13:41.824Z,35.80
2019-02-18T01:16:10.040Z,35.78
2019-02-18T01:18:38.263Z,35.05
2019-02-18T01:21:06.837Z,35.97
2019-02-18T01:23:35.100Z,35.50
2019-02-18T01:26:03.228Z,35.63
2019-02-18T01:28:31.774Z,36.42
2019-02-18T01:30:59.869Z,35.38
2019-02-18T01:33:28.322Z,35.25
2019-02-18T01:35:56.456Z,35.45
2019-02-18T01:38:24.730Z,35.78
2019-02-18T01:40:52.893Z,34.37
2019-02-18T01:43:21.036Z,35.70
2019-02-18T01:45:49.173Z,35.48
2019-02-18T01:48:17.300Z,35.15
2019-02-18T01:50:45.357Z,34.48
2019-02-18T01:53:13.410Z,35.17
2019-02-18T01:55:41.619Z,34.95
2019-02-18T01:58:09.741Z,35.52
2019-02-18T02:00:38.093Z,35.00
2019-02-18T02:03:06.450Z,35.60
2019-02-18T02:05:34.785Z,36.23
2019-02-18T02:08:03.247Z,35.25
2019-02-18T02:10:31.374Z,33.73
2019-02-18T02:13:19.178Z,34.43
2019-02-18T02:15:47.312Z,34.95
2019-02-18T02:18:15.465Z,35.33
2019-02-18T02:20:43.614Z,35.80
2019-02-18T02:23:11.746Z,35.38
2019-02-18T02:25:40.273Z,35.43
2019-02-18T02:28:08.402Z,35.60
2019-02-18T02:30:36.678Z,35.40
2019-02-18T02:33:04.923Z,35.10
2019-02-18T02:35:33.206Z,33.88
2019-02-18T02:38:07.552Z,35.23
2019-02-18T02:40:31.194Z,35.17
2019-02-18T02:42:59.354Z,35.25
2019-02-18T02:45:27.483Z,34.80
2019-02-18T02:47:55.611Z,34.33
2019-02-18T02:50:23.850Z,34.75
2019-02-18T02:52:51.968Z,34.13
2019-02-18T02:55:20.147Z,33.63
2019-02-18T02:57:48.273Z,34.15
2019-02-18T03:00:16.421Z,34.90
2019-02-18T03:02:44.550Z,34.78
2019-02-18T03:05:12.685Z,34.23
2019-02-18T03:07:40.760Z,33.83
2019-02-18T03:10:09.973Z,34.00
2019-02-18T03:12:38.282Z,34.80
2019-02-18T03:15:14.528Z,34.38
2019-02-18T03:17:43.073Z,34.38
2019-02-18T03:20:11.846Z,34.85
2019-02-18T03:22:40.150Z,34.05
2019-02-18T03:25:10.187Z,33.33
2019-02-18T03:27:38.259Z,34.10
2019-02-18T03:30:24.792Z,33.35
2019-02-18T03:32:52.906Z,33.28
2019-02-18T03:35:21.034Z,33.92
2019-02-18T03:37:49.199Z,33.90
2019-02-18T03:40:17.384Z,33.73
2019-02-18T03:42:45.465Z,34.38
2019-02-18T03:45:13.605Z,33.20
2019-02-18T03:47:41.739Z,33.43
2019-02-18T03:50:09.868Z,33.90
2019-02-18T03:52:37.947Z,33.43
2019-02-18T03:55:07.569Z,32.88
2019-02-18T03:57:35.710Z,33.50
2019-02-18T04:00:05.312Z,32.98
2019-02-18T04:02:33.458Z,33.90
2019-02-18T04:05:01.597Z,32.98
2019-02-18T04:07:29.789Z,33.02
2019-02-18T04:09:57.934Z,32.73
2019-02-18T04:12:26.134Z,33.25
2019-02-18T04:14:54.272Z,33.10
2019-02-18T04:17:22.501Z,33.88
2019-02-18T04:19:50.628Z,32.42
2019-02-18T04:22:18.784Z,33.80
2019-02-18T04:24:46.921Z,33.55
2019-02-18T04:27:15.084Z,33.23
2019-02-18T04:29:43.234Z,32.73
2019-02-18T04:32:11.377Z,33.10
2019-02-18T04:34:39.512Z,32.40
2019-02-18T04:37:07.670Z,32.88
2019-02-18T04:39:35.807Z,32.80
2019-02-18T04:42:03.861Z,34.55
2019-02-18T04:44:32.070Z,32.78
2019-02-18T04:47:01.067Z,33.13
2019-02-18T04:49:29.218Z,33.55
2019-02-18T04:51:57.337Z,32.42
2019-02-18T04:54:25.500Z,32.30
2019-02-18T04:56:53.695Z,32.80
2019-02-18T04:59:21.830Z,33.43
2019-02-18T05:01:49.971Z,32.98
2019-02-18T05:04:18.114Z,33.05
2019-02-18T05:06:46.269Z,33.13
2019-02-18T05:09:14.407Z,33.38
2019-02-18T05:11:42.573Z,33.67
2019-02-18T05:14:10.715Z,32.93
2019-02-18T05:16:38.838Z,32.48
2019-02-18T05:19:06.894Z,32.98
2019-02-18T05:21:35.072Z,32.33
2019-02-18T05:24:03.211Z,32.58
2019-02-18T05:26:31.424Z,32.28
2019-02-18T05:29:00.219Z,32.95
2019-02-18T05:31:28.345Z,32.38
2019-02-18T05:33:56.475Z,32.25
2019-02-18T05:36:24.633Z,32.38
2019-02-18T05:38:52.753Z,33.18
2019-02-18T05:41:20.936Z,31.87
2019-02-18T05:43:49.021Z,32.80
2019-02-18T05:46:17.137Z,32.45
2019-02-18T05:48:45.264Z,32.78
2019-02-18T05:51:13.369Z,32.27
2019-02-18T05:53:41.515Z,31.80
2019-02-18T05:56:09.632Z,32.25
2019-02-18T05:58:37.694Z,31.90
2019-02-18T06:01:05.849Z,32.03
2019-02-18T06:03:33.978Z,31.40
2019-02-18T06:06:02.101Z,33.08
2019-02-18T06:08:30.268Z,32.42
2019-02-18T06:10:58.393Z,32.10
2019-02-18T06:13:26.612Z,32.10
2019-02-18T06:15:54.745Z,32.53
2019-02-18T06:18:22.818Z,32.45
2019-02-18T06:20:50.946Z,32.83
2019-02-18T06:23:19.097Z,32.75
2019-02-18T06:25:47.234Z,32.67
2019-02-18T06:28:15.412Z,33.02
2019-02-18T06:30:43.553Z,33.90
2019-02-18T06:33:11.796Z,32.98
2019-02-18T06:35:39.897Z,33.80
2019-02-18T06:38:08.120Z,33.48
2019-02-18T06:40:36.329Z,32.83
2019-02-18T06:43:04.456Z,33.48
2019-02-18T06:45:37.073Z,33.80
2019-02-18T06:48:07.182Z,33.15
2019-02-18T06:50:35.312Z,33.10
2019-02-18T06:53:03.465Z,32.93
2019-02-18T06:55:31.668Z,32.60
2019-02-18T06:58:13.575Z,31.97
2019-02-18T07:00:46.393Z,32.38
2019-02-18T07:03:18.546Z,33.08
2019-02-18T07:05:59.567Z,32.65
2019-02-18T07:08:44.398Z,32.60
2019-02-18T07:11:14.179Z,33.15
2019-02-18T07:13:42.318Z,33.10
2019-02-18T07:16:10.459Z,33.73
2019-02-18T07:18:38.628Z,32.63
2019-02-18T07:21:06.783Z,32.88
2019-02-18T07:23:34.911Z,32.78
2019-02-18T07:26:03.053Z,32.30
2019-02-18T07:28:31.222Z,32.38
2019-02-18T07:30:59.502Z,33.38
2019-02-18T07:33:27.652Z,33.48
2019-02-18T07:35:55.822Z,32.45
2019-02-18T07:38:24.325Z,32.40
2019-02-18T07:40:52.503Z,34.65
2019-02-18T07:43:22.981Z,33.97
2019-02-18T07:45:50.514Z,32.67
2019-02-18T07:48:18.642Z,32.78
2019-02-18T07:51:07.152Z,31.62
2019-02-18T07:53:35.301Z,32.35
2019-02-18T07:56:03.449Z,32.08
2019-02-18T07:58:31.624Z,32.78
2019-02-18T08:00:59.753Z,33.78
2019-02-18T08:03:27.878Z,32.38
2019-02-18T08:05:56.467Z,32.60
2019-02-18T08:08:24.843Z,31.73
2019-02-18T08:10:52.955Z,31.65
2019-02-18T08:13:21.149Z,32.95
2019-02-18T08:15:49.350Z,31.70
2019-02-18T08:18:17.480Z,32.03
2019-02-18T08:20:45.594Z,32.78
2019-02-18T08:23:14.034Z,32.13
2019-02-18T08:25:42.168Z,31.65
2019-02-18T08:28:10.304Z,32.58
2019-02-18T08:30:38.443Z,32.15
2019-02-18T08:33:06.575Z,35.50
2019-02-18T08:35:34.813Z,32.87
2019-02-18T08:38:03.242Z,31.35
2019-02-18T08:40:31.964Z,33.42
2019-02-18T08:43:00.105Z,32.88
2019-02-18T08:45:28.243Z,32.65
2019-02-18T08:47:56.404Z,32.63
2019-02-18T08:50:24.559Z,32.48
2019-02-18T08:52:52.696Z,32.25
2019-02-18T08:55:20.831Z,32.23
2019-02-18T08:57:48.961Z,31.68
2019-02-18T09:00:17.097Z,31.87
2019-02-18T09:02:45.490Z,31.57
2019-02-18T09:05:13.681Z,32.60
2019-02-18T09:07:41.894Z,31.62
2019-02-18T09:10:11.379Z,31.73
2019-02-18T09:12:39.481Z,30.62
2019-02-18T09:15:08.603Z,32.42
2019-02-18T09:17:36.744Z,31.80
2019-02-18T09:20:05.946Z,31.90
2019-02-18T09:22:51.712Z,30.92
2019-02-18T09:25:24.317Z,31.48
2019-02-18T09:27:52.452Z,31.17
2019-02-18T09:30:22.233Z,31.20
2019-02-18T09:32:50.365Z,30.82
2019-02-18T09:35:18.510Z,31.15
2019-02-18T09:37:46.893Z,31.52
2019-02-18T09:40:15.033Z,30.77
2019-02-18T09:42:43.314Z,30.45
2019-02-18T09:45:14.557Z,31.37
2019-02-18T09:48:01.221Z,31.20
2019-02-18T09:50:54.445Z,30.55
2019-02-18T09:53:22.585Z,30.27
2019-02-18T09:55:50.833Z,31.97
2019-02-18T09:58:18.971Z,31.20
2019-02-18T10:00:47.087Z,31.13
2019-02-18T10:03:15.150Z,30.70
2019-02-18T10:05:43.340Z,30.37
2019-02-18T10:08:11.468Z,30.82
2019-02-18T10:10:39.694Z,30.37
2019-02-18T10:13:08.257Z,29.92
2019-02-18T10:15:36.408Z,30.00
2019-02-18T10:18:04.615Z,30.53
2019-02-18T10:20:32.783Z,30.32
2019-02-18T10:23:01.033Z,29.92
2019-02-18T10:25:29.217Z,29.32
2019-02-18T10:27:57.384Z,30.27
2019-02-18T10:30:25.518Z,29.67
2019-02-18T10:32:53.657Z,29.52
2019-02-18T10:35:21.797Z,29.57
2019-02-18T10:37:55.045Z,29.53
2019-02-18T10:40:21.066Z,29.80
2019-02-18T10:42:49.129Z,29.23
2019-02-18T10:45:17.278Z,29.70
2019-02-18T10:47:45.469Z,28.38
2019-02-18T10:50:13.711Z,28.60
2019-02-18T10:52:42.167Z,28.55
2019-02-18T10:55:10.821Z,28.65
2019-02-18T10:57:58.686Z,28.93
2019-02-18T11:00:27.950Z,29.12
2019-02-18T11:02:56.110Z,28.35
2019-02-18T11:05:24.254Z,28.52
2019-02-18T11:07:52.378Z,28.07
2019-02-18T11:10:20.511Z,27.97
2019-02-18T11:12:48.664Z,27.65
2019-02-18T11:15:17.097Z,27.70
2019-02-18T11:17:45.647Z,26.60
2019-02-18T11:20:14.243Z,26.97
2019-02-18T11:22:42.407Z,27.00
2019-02-18T11:25:12.236Z,27.17
2019-02-18T11:27:40.363Z,25.90
2019-02-18T11:30:16.253Z,26.37
2019-02-18T11:32:44.396Z,26.15
2019-02-18T11:35:12.649Z,25.35
2019-02-18T11:37:40.811Z,25.88
2019-02-18T11:40:32.815Z,26.05
2019-02-18T11:43:01.419Z,25.27
2019-02-18T11:45:29.544Z,25.32
2019-02-18T11:47:57.680Z,24.82
2019-02-18T11:50:25.836Z,25.50
2019-02-18T11:52:54.008Z,25.10
2019-02-18T11:55:22.171Z,25.12
2019-02-18T11:57:50.318Z,24.55
2019-02-18T12:00:18.532Z,25.50
2019-02-18T12:02:46.736Z,26.17
2019-02-18T12:05:14.886Z,24.95
2019-02-18T12:07:43.028Z,24.63
2019-02-18T12:10:11.720Z,24.47
2019-02-18T12:12:40.182Z,24.90
2019-02-18T12:15:11.940Z,24.02
2019-02-18T12:17:40.446Z,23.40
2019-02-18T12:20:10.574Z,24.55
2019-02-18T12:22:38.709Z,23.30
2019-02-18T12:25:06.842Z,24.20
2019-02-18T12:27:34.990Z,22.93
2019-02-18T12:30:03.813Z,23.07
2019-02-18T12:32:31.969Z,22.27
2019-02-18T12:35:00.102Z,21.07
2019-02-18T12:37:30.034Z,22.80
2019-02-18T12:39:58.073Z,22.25
2019-02-18T12:42:26.223Z,22.30
2019-02-18T12:44:54.956Z,22.45
2019-02-18T12:47:23.081Z,22.25
2019-02-18T12:49:51.541Z,21.90
2019-02-18T12:52:19.810Z,22.40
2019-02-18T12:54:47.991Z,21.73
2019-02-18T12:57:16.170Z,21.45
2019-02-18T12:59:44.411Z,23.12
2019-02-18T13:02:13.029Z,23.03
2019-02-18T13:04:41.269Z,24.20
2019-02-18T13:07:09.413Z,25.48
2019-02-18T13:09:37.580Z,28.30
2019-02-18T13:12:05.792Z,27.65
2019-02-18T13:14:33.905Z,28.67
2019-02-18T13:17:02.143Z,28.92
2019-02-18T13:19:30.346Z,27.17
2019-02-18T13:21:59.072Z,26.33
2019-02-18T13:24:27.373Z,25.90
2019-02-18T13:26:55.579Z,25.85
2019-02-18T13:29:23.700Z,24.83
2019-02-18T13:31:51.829Z,25.67
2019-02-18T13:34:19.966Z,26.30
2019-02-18T13:36:48.119Z,25.48
2019-02-18T13:39:16.637Z,24.60
2019-02-18T13:41:44.837Z,25.55
2019-02-18T13:44:12.985Z,25.15
2019-02-18T13:46:41.390Z,25.50
2019-02-18T13:49:09.532Z,25.72
2019-02-18T13:51:37.661Z,25.70
2019-02-18T13:54:05.813Z,26.27
2019-02-18T13:56:34.374Z,27.42
2019-02-18T13:59:02.513Z,25.80
2019-02-18T14:01:30.651Z,25.50
2019-02-18T14:03:58.818Z,26.65
2019-02-18T14:06:27.009Z,24.80
2019-02-18T14:08:55.115Z,26.85
2019-02-18T14:11:23.304Z,26.02
2019-02-18T14:13:51.433Z,27.20
2019-02-18T14:16:19.593Z,27.85
2019-02-18T14:18:47.976Z,26.97
2019-02-18T14:21:16.149Z,26.35
2019-02-18T14:23:44.326Z,26.50
2019-02-18T14:26:12.631Z,27.48
2019-02-18T14:28:41.397Z,27.67
2019-02-18T14:31:09.627Z,28.02
2019-02-18T14:33:37.769Z,29.80
2019-02-18T14:36:06.265Z,29.60
2019-02-18T14:38:34.390Z,31.53
2019-02-18T14:41:02.691Z,32.10
2019-02-18T14:43:30.843Z,32.45
2019-02-18T14:45:58.964Z,30.75
2019-02-18T14:48:27.114Z,30.65
2019-02-18T14:50:57.153Z,28.67
2019-02-18T14:53:25.460Z,29.32
2019-02-18T14:55:53.624Z,29.42
2019-02-18T14:58:21.767Z,29.05
2019-02-18T15:00:50.306Z,27.75
2019-02-18T15:03:18.435Z,27.70
2019-02-18T15:05:46.667Z,27.73
2019-02-18T15:08:15.170Z,26.90
2019-02-18T15:10:43.290Z,25.90
2019-02-18T15:13:11.499Z,25.52
2019-02-18T15:15:39.647Z,25.43
2019-02-18T15:18:07.798Z,24.92
2019-02-18T15:20:36.062Z,25.30
2019-02-18T15:23:04.506Z,24.52
2019-02-18T15:25:32.645Z,23.12
2019-02-18T15:28:08.381Z,22.93
2019-02-18T15:30:37.641Z,22.45
2019-02-18T15:33:05.790Z,22.35
2019-02-18T15:35:34.128Z,21.90
2019-02-18T15:38:02.288Z,21.35
2019-02-18T15:40:30.420Z,20.75
2019-02-18T15:42:58.558Z,20.75
2019-02-18T15:45:26.722Z,21.20
2019-02-18T15:48:01.725Z,20.17
2019-02-18T15:50:26.886Z,18.80
2019-02-18T15:52:55.025Z,19.92
2019-02-18T15:55:23.239Z,19.80
2019-02-18T15:57:51.412Z,19.17
2019-02-18T16:00:21.561Z,18.82
2019-02-18T16:02:50.036Z,18.70
2019-02-18T16:05:18.242Z,19.05
2019-02-18T16:07:46.377Z,18.67
2019-02-18T16:10:14.520Z,18.60
2019-02-18T16:12:50.220Z,19.50
2019-02-18T16:15:12.595Z,19.80
2019-02-18T16:17:53.197Z,18.83
2019-02-18T16:20:21.353Z,19.90
2019-02-18T16:22:49.554Z,20.82
2019-02-18T16:25:19.327Z,20.37
2019-02-18T16:27:47.457Z,21.42
2019-02-18T16:30:15.654Z,21.17
2019-02-18T16:33:03.618Z,20.62
2019-02-18T16:35:32.146Z,23.05
2019-02-18T16:38:00.341Z,21.77
2019-02-18T16:40:28.702Z,22.35
2019-02-18T16:42:59.315Z,22.25
2019-02-18T16:45:26.768Z,21.30
2019-02-18T16:47:54.905Z,22.02
2019-02-18T16:50:23.038Z,21.70
2019-02-18T16:52:51.194Z,23.10
2019-02-18T16:55:19.490Z,25.00
2019-02-18T16:57:48.296Z,28.12
2019-02-18T17:00:24.157Z,32.50
2019-02-18T17:02:52.961Z,32.38
2019-02-18T17:05:27.168Z,32.10
2019-02-18T17:07:55.312Z,29.72
2019-02-18T17:10:23.451Z,29.85
2019-02-18T17:12:51.586Z,27.02
2019-02-18T17:15:39.250Z,27.57
2019-02-18T17:18:07.365Z,28.45
2019-02-18T17:20:35.513Z,27.13
2019-02-18T17:23:03.640Z,27.50
2019-02-18T17:25:31.810Z,25.35
2019-02-18T17:27:59.942Z,26.27
2019-02-18T17:30:28.078Z,25.10
2019-02-18T17:32:56.239Z,25.95
2019-02-18T17:35:24.445Z,24.47
2019-02-18T17:37:52.653Z,24.67
2019-02-18T17:40:20.862Z,25.15
2019-02-18T17:42:49.006Z,25.15
2019-02-18T17:45:17.448Z,24.35
2019-02-18T17:47:45.581Z,23.98
2019-02-18T17:50:14.496Z,23.87
2019-02-18T17:52:42.700Z,22.83
2019-02-18T17:55:12.465Z,22.98
2019-02-18T17:57:41.266Z,23.35
2019-02-18T18:00:14.097Z,23.10
2019-02-18T18:02:42.229Z,22.50
2019-02-18T18:05:10.535Z,21.65
2019-02-18T18:07:38.665Z,22.70
2019-02-18T18:10:08.661Z,22.45
2019-02-18T18:12:37.084Z,22.57
2019-02-18T18:15:07.035Z,23.47
2019-02-18T18:17:35.183Z,22.32
2019-02-18T18:20:03.756Z,21.70
2019-02-18T18:22:31.944Z,21.50
2019-02-18T18:25:00.220Z,21.68
2019-02-18T18:27:28.702Z,22.00
2019-02-18T18:29:56.833Z,21.70
2019-02-18T18:32:24.988Z,21.50
2019-02-18T18:34:53.122Z,21.27
2019-02-18T18:37:21.287Z,21.27
2019-02-18T18:39:49.445Z,20.68
2019-02-18T18:42:17.604Z,20.17
2019-02-18T18:44:46.037Z,20.48
2019-02-18T18:47:14.170Z,20.90
2019-02-18T18:49:42.317Z,21.42
2019-02-18T18:52:10.461Z,21.35
2019-02-18T18:54:38.596Z,20.40
2019-02-18T18:57:07.074Z,20.45
2019-02-18T18:59:35.497Z,19.90
2019-02-18T19:02:04.107Z,20.75
2019-02-18T19:04:32.273Z,20.70
2019-02-18T19:07:00.422Z,20.12
2019-02-18T19:09:28.628Z,20.03
2019-02-18T19:11:56.949Z,20.23
2019-02-18T19:14:25.050Z,20.00
2019-02-18T19:16:53.210Z,20.72
2019-02-18T19:19:21.337Z,20.05
2019-02-18T19:21:49.394Z,20.02
2019-02-18T19:24:17.608Z,20.50
2019-02-18T19:26:45.742Z,20.40
2019-02-18T19:29:13.884Z,21.55
2019-02-18T19:31:42.905Z,20.92
2019-02-18T19:34:10.969Z,21.45
2019-02-18T19:36:39.206Z,20.30
2019-02-18T19:39:07.770Z,19.82
2019-02-18T19:41:36.479Z,19.80
2019-02-18T19:44:04.618Z,19.77
2019-02-18T19:46:33.270Z,20.08
2019-02-18T19:49:01.493Z,20.40
2019-02-18T19:51:29.634Z,20.17
2019-02-18T19:53:57.779Z,20.40
2019-02-18T19:56:25.908Z,20.23
2019-02-18T19:58:54.032Z,19.98
2019-02-18T20:01:22.587Z,21.40
2019-02-18T20:03:51.258Z,20.37
2019-02-18T20:06:22.006Z,20.35
2019-02-18T20:08:50.201Z,20.55
2019-02-18T20:11:18.334Z,21.93
2019-02-18T20:13:46.506Z,22.55
2019-02-18T20:16:14.898Z,23.02
2019-02-18T20:18:42.978Z,22.87
2019-02-18T20:21:11.142Z,23.33
2019-02-18T20:23:39.269Z,23.42
2019-02-18T20:26:07.764Z,24.20
2019-02-18T20:28:36.148Z,23.55
2019-02-18T20:31:04.277Z,24.27
2019-02-18T20:33:32.665Z,24.40
2019-02-18T20:36:01.014Z,24.18
2019-02-18T20:38:29.408Z,24.65
2019-02-18T20:40:57.539Z,24.80
2019-02-18T20:43:25.706Z,24.53
2019-02-18T20:45:53.878Z,25.48
2019-02-18T20:48:22.380Z,24.30
2019-02-18T20:50:50.551Z,24.52
2019-02-18T20:53:18.689Z,25.55
2019-02-18T20:55:46.824Z,25.95
2019-02-18T20:58:14.977Z,24.98
2019-02-18T21:00:43.112Z,25.00
2019-02-18T21:03:11.314Z,24.63
2019-02-18T21:05:39.450Z,26.33
2019-02-18T21:08:07.667Z,25.48
2019-02-18T21:10:35.812Z,26.75
2019-02-18T21:13:03.972Z,26.20
2019-02-18T21:15:32.114Z,28.05
2019-02-18T21:18:00.374Z,27.20
2019-02-18T21:20:28.833Z,28.25
2019-02-18T21:22:57.046Z,29.45
2019-02-18T21:25:25.292Z,29.00
2019-02-18T21:27:53.431Z,29.63
2019-02-18T21:30:21.555Z,29.90
2019-02-18T21:32:49.886Z,30.10
2019-02-18T21:35:18.010Z,30.20
2019-02-18T21:37:46.549Z,30.40
2019-02-18T21:40:14.702Z,31.23
2019-02-18T21:42:42.833Z,30.15
2019-02-18T21:45:12.434Z,30.37
2019-02-18T21:47:40.606Z,29.82
2019-02-18T21:50:09.497Z,30.40
2019-02-18T21:52:37.933Z,30.80
2019-02-18T21:55:07.540Z,30.88
2019-02-18T21:57:55.184Z,30.40
2019-02-18T22:00:24.082Z,31.12
2019-02-18T22:02:52.229Z,31.40
2019-02-18T22:05:20.369Z,31.55
2019-02-18T22:07:48.598Z,31.17
2019-02-18T22:10:16.740Z,30.57
2019-02-18T22:12:44.882Z,30.48
2019-02-18T22:15:14.181Z,30.72
2019-02-18T22:17:42.329Z,31.10
2019-02-18T22:20:11.226Z,30.25
2019-02-18T22:22:39.357Z,31.90
2019-02-18T22:25:11.076Z,31.03
2019-02-18T22:27:39.322Z,31.45
2019-02-18T22:30:09.117Z,31.17
2019-02-18T22:32:37.241Z,31.02
2019-02-18T22:35:05.856Z,31.93
2019-02-18T22:37:34.281Z,30.75
2019-02-18T22:40:03.332Z,32.48
2019-02-18T22:42:31.478Z,31.07
2019-02-18T22:44:59.609Z,31.85
2019-02-18T22:47:27.754Z,30.80
2019-02-18T22:49:55.891Z,31.55
2019-02-18T22:52:24.017Z,31.93
2019-02-18T22:54:52.663Z,31.02
2019-02-18T22:57:20.797Z,31.85
2019-02-18T22:59:48.937Z,31.25
2019-02-18T23:02:17.150Z,31.50
2019-02-18T23:04:45.306Z,32.38
2019-02-18T23:07:13.435Z,32.13
2019-02-18T23:09:41.564Z,31.55
2019-02-18T23:12:10.022Z,31.62
2019-02-18T23:14:38.163Z,32.98
2019-02-18T23:17:06.292Z,31.48
2019-02-18T23:19:34.444Z,31.60
2019-02-18T23:22:02.632Z,32.33
2019-02-18T23:24:30.811Z,31.20
2019-02-18T23:26:58.959Z,32.37
2019-02-18T23:29:27.385Z,30.82
2019-02-18T23:31:55.510Z,30.70
2019-02-18T23:34:23.662Z,32.03
2019-02-18T23:36:51.802Z,31.48
2019-02-18T23:39:19.968Z,31.97
2019-02-18T23:41:48.097Z,31.68
2019-02-18T23:44:16.285Z,32.87
2019-02-18T23:46:44.460Z,31.00
2019-02-18T23:49:12.606Z,32.53
2019-02-18T23:51:40.734Z,32.40
2019-02-18T23:54:08.878Z,31.57
2019-02-18T23:56:37.173Z,31.37
2019-02-18T23:59:05.326Z,31.93
